Jacinto, Mississippi
Current Conditions -  °F | °C
As of 2:15 PM on Thursday 29 Jan 2015 (Local Time) from KCRX Reporting Station
Broken Clouds Broken Clouds  
Wind Chill: 19°   Ceiling: 4100
Heat Index: 19°   Visibility: 10mi
Dew Point:   Wind: 14mph
Humidity: 49%   Direction: 250°WSW
Pressure: 30.06"   Gusts: NA
Location:  34.7969°N, 88.6031°W
Report Text: KCRX 292015Z AUTO 25012KT 10SM BKN041 19/08 A3006 RMK AO2
Loading
Personal Weather Stations






























Interactive Weather Map New forecast layout! Learn more

10-Day Weather Forecast

Advertisements
Track Severe Weather on mobile